createdAt,value
2023-02-18T00:02:18.590Z,4.45
2023-02-18T00:05:07.249Z,4.72
2023-02-18T00:07:54.761Z,4.47
2023-02-18T00:10:43.993Z,4.30
2023-02-18T00:13:31.351Z,4.72
2023-02-18T00:16:18.712Z,4.63
2023-02-18T00:19:09.369Z,4.20
2023-02-18T00:21:56.708Z,4.20
2023-02-18T00:24:44.339Z,4.25
2023-02-18T00:27:33.025Z,4.95
2023-02-18T00:30:20.780Z,4.47
2023-02-18T00:33:08.363Z,4.60
2023-02-18T00:36:04.319Z,4.25
2023-02-18T00:38:54.739Z,3.70
2023-02-18T00:41:43.499Z,4.55
2023-02-18T00:44:32.556Z,4.43
2023-02-18T00:47:20.270Z,4.80
2023-02-18T00:50:09.773Z,4.95
2023-02-18T00:52:57.190Z,4.90
2023-02-18T00:55:47.942Z,5.78
2023-02-18T00:58:36.342Z,5.80
2023-02-18T01:01:25.297Z,5.90
2023-02-18T01:04:13.294Z,5.05
2023-02-18T01:07:00.946Z,4.60
2023-02-18T01:09:48.587Z,5.13
2023-02-18T01:12:35.977Z,5.20
2023-02-18T01:15:24.746Z,5.40
2023-02-18T01:18:14.603Z,4.30
2023-02-18T01:21:02.564Z,3.90
2023-02-18T01:23:50.246Z,3.47
2023-02-18T01:26:37.710Z,3.38
2023-02-18T01:29:25.175Z,3.72
2023-02-18T01:32:12.813Z,3.47
2023-02-18T01:35:03.922Z,2.95
2023-02-18T01:37:52.435Z,3.15
2023-02-18T01:40:51.294Z,3.22
2023-02-18T01:43:39.697Z,3.42
2023-02-18T01:46:27.197Z,3.20
2023-02-18T01:49:19.303Z,2.95
2023-02-18T01:52:15.364Z,3.38
2023-02-18T01:55:02.903Z,3.20
2023-02-18T01:57:50.294Z,2.95
2023-02-18T02:00:37.965Z,2.67
2023-02-18T02:03:25.413Z,2.33
2023-02-18T02:06:19.672Z,2.30
2023-02-18T02:09:14.570Z,2.42
2023-02-18T02:12:37.342Z,2.40
2023-02-18T02:15:35.890Z,2.47
2023-02-18T02:18:45.266Z,3.00
2023-02-18T02:22:11.086Z,2.50
2023-02-18T02:25:27.855Z,2.90
2023-02-18T02:29:02.305Z,2.58
2023-02-18T02:32:21.396Z,2.47
2023-02-18T02:35:14.451Z,2.40
2023-02-18T02:44:10.095Z,1.80
2023-02-18T02:47:09.172Z,1.92
2023-02-18T02:50:04.605Z,2.38
2023-02-18T02:53:01.155Z,1.90
2023-02-18T02:55:49.046Z,2.05
2023-02-18T02:58:36.368Z,2.47
2023-02-18T03:01:39.260Z,2.20
2023-02-18T03:05:08.588Z,2.28
2023-02-18T03:08:32.010Z,2.30
2023-02-18T03:14:15.240Z,2.05
2023-02-18T03:17:09.015Z,2.28
2023-02-18T03:20:09.328Z,2.05
2023-02-18T03:23:01.194Z,2.22
2023-02-18T03:25:49.864Z,2.42
2023-02-18T03:28:39.815Z,2.30
2023-02-18T03:31:31.923Z,2.22
2023-02-18T03:34:27.478Z,2.17
2023-02-18T03:37:16.718Z,2.15
2023-02-18T03:40:09.281Z,1.80
2023-02-18T03:42:58.644Z,1.98
2023-02-18T03:45:46.441Z,2.05
2023-02-18T03:48:33.934Z,2.00
2023-02-18T03:51:21.770Z,2.20
2023-02-18T03:54:10.010Z,2.10
2023-02-18T03:56:59.004Z,2.03
2023-02-18T03:59:46.852Z,1.80
2023-02-18T04:02:34.419Z,2.22
2023-02-18T04:05:22.386Z,1.95
2023-02-18T04:08:10.224Z,1.80
2023-02-18T04:10:58.034Z,1.95
2023-02-18T04:13:47.241Z,2.00
2023-02-18T04:16:34.954Z,2.15
2023-02-18T04:19:22.937Z,1.90
2023-02-18T04:22:10.388Z,2.10
2023-02-18T04:24:57.813Z,1.90
2023-02-18T04:27:45.474Z,1.80
2023-02-18T04:30:34.973Z,2.05
2023-02-18T04:33:22.729Z,1.90
2023-02-18T04:36:10.998Z,1.92
2023-02-18T04:38:59.266Z,1.70
2023-02-18T04:41:46.746Z,2.25
2023-02-18T04:44:34.145Z,2.03
2023-02-18T04:47:23.130Z,2.28
2023-02-18T04:50:12.025Z,2.17
2023-02-18T04:52:59.898Z,1.98
2023-02-18T04:55:52.108Z,2.10
2023-02-18T04:58:39.684Z,2.80
2023-02-18T05:01:27.238Z,2.28
2023-02-18T05:04:17.458Z,2.30
2023-02-18T05:07:04.918Z,2.47
2023-02-18T05:09:52.807Z,1.98
2023-02-18T05:12:40.442Z,2.10
2023-02-18T05:15:28.407Z,2.33
2023-02-18T05:18:16.136Z,2.40
2023-02-18T05:21:05.323Z,2.35
2023-02-18T05:23:52.795Z,2.40
2023-02-18T05:26:40.324Z,2.28
2023-02-18T05:29:28.043Z,2.75
2023-02-18T05:32:15.658Z,2.90
2023-02-18T05:35:06.331Z,2.50
2023-02-18T05:37:55.365Z,2.25
2023-02-18T05:40:43.092Z,2.60
2023-02-18T05:43:30.518Z,2.50
2023-02-18T05:46:17.922Z,2.50
2023-02-18T05:49:05.368Z,2.50
2023-02-18T05:51:52.995Z,2.22
2023-02-18T05:54:42.231Z,2.42
2023-02-18T05:57:29.986Z,2.70
2023-02-18T06:00:18.665Z,2.20
2023-02-18T06:03:06.637Z,2.13
2023-02-18T06:05:54.658Z,2.13
2023-02-18T06:08:42.428Z,2.33
2023-02-18T06:11:31.529Z,2.58
2023-02-18T06:14:21.306Z,2.28
2023-02-18T06:17:08.963Z,2.67
2023-02-18T06:19:56.818Z,2.83
2023-02-18T06:22:44.268Z,3.00
2023-02-18T06:25:31.741Z,2.55
2023-02-18T06:28:20.670Z,2.83
2023-02-18T06:31:08.472Z,3.80
2023-02-18T06:33:56.232Z,3.63
2023-02-18T06:36:43.660Z,4.00
2023-02-18T06:39:31.210Z,4.43
2023-02-18T06:42:18.728Z,3.38
2023-02-18T06:45:08.095Z,3.72
2023-02-18T06:47:55.463Z,4.45
2023-02-18T06:50:43.187Z,3.47
2023-02-18T06:53:30.874Z,4.57
2023-02-18T06:56:19.089Z,4.32
2023-02-18T06:59:08.273Z,4.40
2023-02-18T07:01:57.408Z,4.60
2023-02-18T07:04:45.582Z,4.45
2023-02-18T07:07:33.190Z,4.45
2023-02-18T07:10:20.958Z,4.60
2023-02-18T07:13:08.454Z,4.72
2023-02-18T07:15:55.886Z,5.57
2023-02-18T07:18:44.488Z,5.63
2023-02-18T07:21:32.170Z,4.97
2023-02-18T07:24:19.646Z,6.03
2023-02-18T07:27:07.136Z,7.32
2023-02-18T07:29:55.262Z,6.68
2023-02-18T07:32:43.543Z,6.30
2023-02-18T07:35:32.605Z,6.65
2023-02-18T07:38:20.256Z,5.90
2023-02-18T07:41:07.673Z,6.20
2023-02-18T07:43:55.217Z,5.93
2023-02-18T07:46:43.955Z,6.68
2023-02-18T07:49:32.088Z,7.05
2023-02-18T07:52:20.753Z,7.22
2023-02-18T07:55:09.661Z,6.10
2023-02-18T07:58:02.199Z,6.63
2023-02-18T08:00:50.775Z,6.85
2023-02-18T08:03:39.419Z,6.75
2023-02-18T08:06:32.447Z,6.70
2023-02-18T08:09:21.484Z,7.05
2023-02-18T08:12:10.134Z,6.50
2023-02-18T08:14:57.479Z,7.45
2023-02-18T08:17:44.957Z,6.63
2023-02-18T08:20:32.588Z,6.30
2023-02-18T08:23:22.705Z,6.80
2023-02-18T08:26:12.123Z,5.85
2023-02-18T08:28:59.700Z,5.70
2023-02-18T08:31:47.255Z,6.13
2023-02-18T08:34:35.169Z,5.60
2023-02-18T08:37:23.846Z,5.28
2023-02-18T08:40:13.371Z,6.22
2023-02-18T08:43:02.285Z,7.10
2023-02-18T08:45:49.916Z,5.63
2023-02-18T08:48:37.375Z,6.07
2023-02-18T08:51:26.193Z,6.38
2023-02-18T08:54:14.171Z,5.75
2023-02-18T08:57:02.920Z,4.82
2023-02-18T08:59:51.924Z,5.60
2023-02-18T09:02:40.490Z,6.05
2023-02-18T09:05:28.404Z,5.30
2023-02-18T09:08:16.074Z,5.40
2023-02-18T09:11:06.044Z,5.28
2023-02-18T09:13:53.578Z,5.72
2023-02-18T09:16:44.045Z,6.28
2023-02-18T09:19:31.908Z,5.97
2023-02-18T09:22:19.816Z,5.00
2023-02-18T09:25:09.053Z,5.80
2023-02-18T09:27:56.583Z,4.80
2023-02-18T09:30:43.965Z,5.32
2023-02-18T09:33:32.759Z,4.43
2023-02-18T09:36:21.560Z,4.70
2023-02-18T09:39:09.297Z,4.03
2023-02-18T09:41:59.641Z,3.90
2023-02-18T09:44:53.886Z,3.80
2023-02-18T09:47:44.286Z,3.90
2023-02-18T09:50:35.168Z,5.18
2023-02-18T09:53:24.636Z,4.25
2023-02-18T09:56:17.077Z,4.80
2023-02-18T09:59:10.048Z,4.53
2023-02-18T10:01:58.206Z,4.72
2023-02-18T10:04:50.912Z,3.92
2023-02-18T10:07:41.576Z,3.70
2023-02-18T10:10:40.731Z,3.95
2023-02-18T10:13:31.958Z,3.92
2023-02-18T10:16:22.157Z,3.85
2023-02-18T10:19:22.668Z,3.67
2023-02-18T10:22:14.996Z,4.13
2023-02-18T10:25:07.955Z,4.30
2023-02-18T10:27:57.803Z,4.63
2023-02-18T10:30:52.385Z,5.82
2023-02-18T10:33:48.143Z,5.85
2023-02-18T10:36:44.531Z,5.35
2023-02-18T10:39:49.113Z,4.65
2023-02-18T10:42:47.768Z,5.30
2023-02-18T10:45:47.503Z,4.90
2023-02-18T10:49:02.843Z,5.95
2023-02-18T10:51:56.356Z,5.93
2023-02-18T10:54:54.943Z,5.75
2023-02-18T10:57:51.175Z,4.57
2023-02-18T11:00:41.371Z,4.88
2023-02-18T11:03:42.806Z,5.20
2023-02-18T11:06:39.210Z,7.10
2023-02-18T11:09:36.035Z,6.78
2023-02-18T11:12:28.463Z,4.72
2023-02-18T11:15:24.341Z,4.30
2023-02-18T11:18:30.178Z,4.05
2023-02-18T11:21:30.073Z,4.10
2023-02-18T11:24:21.074Z,4.00
2023-02-18T11:27:14.484Z,4.28
2023-02-18T11:30:09.054Z,4.38
2023-02-18T11:33:07.437Z,4.25
2023-02-18T11:35:58.533Z,4.00
2023-02-18T11:38:50.805Z,4.30
2023-02-18T11:41:43.644Z,4.15
2023-02-18T11:44:36.055Z,4.15
2023-02-18T11:47:28.488Z,4.40
2023-02-18T11:50:23.837Z,4.88
2023-02-18T11:53:30.515Z,4.30
2023-02-18T11:56:20.332Z,4.32
2023-02-18T11:59:11.586Z,3.85
2023-02-18T12:02:14.447Z,4.05
2023-02-18T12:05:11.318Z,4.95
2023-02-18T12:08:07.545Z,4.75
2023-02-18T12:11:02.752Z,6.28
2023-02-18T12:13:56.039Z,5.65
2023-02-18T12:17:03.998Z,5.32
2023-02-18T12:20:28.725Z,4.22
2023-02-18T12:23:28.149Z,5.15
2023-02-18T12:26:28.690Z,5.60
2023-02-18T12:29:43.025Z,4.70
2023-02-18T12:32:48.013Z,3.95
2023-02-18T12:35:55.910Z,4.10
2023-02-18T12:39:13.090Z,4.85
2023-02-18T12:42:40.285Z,5.97
2023-02-18T12:46:03.020Z,3.97
2023-02-18T12:49:15.839Z,3.60
2023-02-18T12:52:23.063Z,4.03
2023-02-18T12:55:45.752Z,3.97
2023-02-18T12:58:56.026Z,3.95
2023-02-18T13:01:55.959Z,4.45
2023-02-18T13:04:59.784Z,5.32
2023-02-18T13:08:13.443Z,5.03
2023-02-18T13:11:27.866Z,5.70
2023-02-18T13:14:23.089Z,5.28
2023-02-18T13:17:16.394Z,5.55
2023-02-18T13:20:15.552Z,5.80
2023-02-18T13:23:04.658Z,5.47
2023-02-18T13:26:01.317Z,4.70
2023-02-18T13:29:04.299Z,4.70
2023-02-18T13:32:10.730Z,5.78
2023-02-18T13:35:11.355Z,4.10
2023-02-18T13:38:24.253Z,4.32
2023-02-18T13:41:12.326Z,3.55
2023-02-18T13:44:01.273Z,4.40
2023-02-18T13:46:55.023Z,3.67
2023-02-18T13:49:42.829Z,3.30
2023-02-18T13:52:30.359Z,3.08
2023-02-18T13:55:24.022Z,3.33
2023-02-18T13:58:20.698Z,2.80
2023-02-18T14:01:22.608Z,3.45
2023-02-18T14:04:54.315Z,2.88
2023-02-18T14:08:04.350Z,3.70
2023-02-18T14:11:40.385Z,3.25
2023-02-18T14:14:46.675Z,2.83
2023-02-18T14:17:43.923Z,3.28
2023-02-18T14:20:51.319Z,3.67
2023-02-18T14:24:00.464Z,3.20
2023-02-18T14:26:50.540Z,3.33
2023-02-18T14:29:38.441Z,3.35
2023-02-18T14:32:26.730Z,3.33
2023-02-18T14:35:36.040Z,3.78
2023-02-18T14:38:49.340Z,3.75
2023-02-18T14:41:49.248Z,4.00
2023-02-18T14:45:14.691Z,4.07
2023-02-18T14:48:37.414Z,6.28
2023-02-18T14:51:30.529Z,6.78
2023-02-18T14:54:21.962Z,6.43
2023-02-18T14:57:17.579Z,6.45
2023-02-18T15:00:07.586Z,6.05
2023-02-18T15:02:56.715Z,6.53
2023-02-18T15:05:46.434Z,5.63
2023-02-18T15:08:40.927Z,5.90
2023-02-18T15:11:38.515Z,6.60
2023-02-18T15:14:30.677Z,6.38
2023-02-18T15:17:23.599Z,6.35
2023-02-18T15:20:15.172Z,6.55
2023-02-18T15:23:03.357Z,8.00
2023-02-18T15:25:55.329Z,7.40
2023-02-18T15:28:55.531Z,8.60
2023-02-18T15:31:43.171Z,6.78
2023-02-18T15:34:38.637Z,6.57
2023-02-18T15:37:26.998Z,6.68
2023-02-18T15:40:16.026Z,5.80
2023-02-18T15:43:07.578Z,7.35
2023-02-18T15:45:58.949Z,6.40
2023-02-18T15:48:51.221Z,6.40
2023-02-18T15:51:38.720Z,8.65
2023-02-18T15:54:26.750Z,7.80
2023-02-18T15:57:17.983Z,7.13
2023-02-18T16:00:17.275Z,6.78
2023-02-18T16:03:14.231Z,5.80
2023-02-18T16:06:18.957Z,7.10
2023-02-18T16:09:17.624Z,4.85
2023-02-18T16:12:22.702Z,5.60
2023-02-18T16:15:22.121Z,5.68
2023-02-18T16:18:40.441Z,6.10
2023-02-18T16:21:34.444Z,5.05
2023-02-18T16:24:28.096Z,4.82
2023-02-18T16:27:17.764Z,4.35
2023-02-18T16:30:18.678Z,4.90
2023-02-18T16:33:06.334Z,5.30
2023-02-18T16:35:56.168Z,4.88
2023-02-18T16:38:45.873Z,5.55
2023-02-18T16:41:33.253Z,6.07
2023-02-18T16:44:20.611Z,4.70
2023-02-18T16:47:16.260Z,4.88
2023-02-18T16:50:04.137Z,4.88
2023-02-18T16:52:51.854Z,5.38
2023-02-18T16:55:41.945Z,5.25
2023-02-18T16:58:29.886Z,4.68
2023-02-18T17:01:28.730Z,4.35
2023-02-18T17:04:20.038Z,4.70
2023-02-18T17:07:12.139Z,4.60
2023-02-18T17:10:00.761Z,4.35
2023-02-18T17:12:48.703Z,4.80
2023-02-18T17:15:37.906Z,5.78
2023-02-18T17:18:26.418Z,5.00
2023-02-18T17:21:17.985Z,6.82
2023-02-18T17:24:06.473Z,5.03
2023-02-18T17:26:53.927Z,5.30
2023-02-18T17:29:41.415Z,4.70
2023-02-18T17:32:29.285Z,5.00
2023-02-18T17:35:19.925Z,5.20
2023-02-18T17:38:12.464Z,4.97
2023-02-18T17:40:59.911Z,4.78
2023-02-18T17:43:47.376Z,4.53
2023-02-18T17:46:34.847Z,4.22
2023-02-18T17:49:23.351Z,4.47
2023-02-18T17:52:30.734Z,4.45
2023-02-18T17:55:23.634Z,4.97
2023-02-18T17:58:12.314Z,4.85
2023-02-18T18:01:00.226Z,4.78
2023-02-18T18:03:48.107Z,4.93
2023-02-18T18:06:36.335Z,4.57
2023-02-18T18:09:24.459Z,3.88
2023-02-18T18:12:16.896Z,4.20
2023-02-18T18:15:17.103Z,2.97
2023-02-18T18:18:05.586Z,4.47
2023-02-18T18:20:57.068Z,4.22
2023-02-18T18:23:44.546Z,4.00
2023-02-18T18:26:32.167Z,3.88
2023-02-18T18:29:21.125Z,4.35
2023-02-18T18:32:09.859Z,4.20
2023-02-18T18:34:57.244Z,4.15
2023-02-18T18:37:45.267Z,4.15
2023-02-18T18:40:34.554Z,4.38
2023-02-18T18:43:24.997Z,4.20
2023-02-18T18:46:14.018Z,4.60
2023-02-18T18:49:01.628Z,4.20
2023-02-18T18:51:49.203Z,3.88
2023-02-18T18:54:36.911Z,4.35
2023-02-18T18:57:24.239Z,4.43
2023-02-18T19:00:13.547Z,4.60
2023-02-18T19:03:04.126Z,4.28
2023-02-18T19:05:52.913Z,4.43
2023-02-18T19:08:40.691Z,4.25
2023-02-18T19:11:28.249Z,4.22
2023-02-18T19:14:15.696Z,4.30
2023-02-18T19:17:05.040Z,4.43
2023-02-18T19:19:54.377Z,5.03
2023-02-18T19:22:42.287Z,4.28
2023-02-18T19:25:30.097Z,4.57
2023-02-18T19:28:20.525Z,4.55
2023-02-18T19:31:12.159Z,4.55
2023-02-18T19:33:59.723Z,4.40
2023-02-18T19:36:48.608Z,4.10
2023-02-18T19:39:36.912Z,4.80
2023-02-18T19:42:24.319Z,4.22
2023-02-18T19:45:12.520Z,4.28
2023-02-18T19:48:02.130Z,4.20
2023-02-18T19:50:49.793Z,4.47
2023-02-18T19:53:38.681Z,4.47
2023-02-18T19:56:26.362Z,4.38
2023-02-18T19:59:13.844Z,4.45
2023-02-18T20:02:01.548Z,4.25
2023-02-18T20:04:49.783Z,4.45
2023-02-18T20:07:37.729Z,4.90
2023-02-18T20:10:27.045Z,4.47
2023-02-18T20:13:14.352Z,4.00
2023-02-18T20:16:01.760Z,4.50
2023-02-18T20:18:49.163Z,4.75
2023-02-18T20:21:36.727Z,4.07
2023-02-18T20:24:24.530Z,4.90
2023-02-18T20:27:13.330Z,4.65
2023-02-18T20:30:01.217Z,4.30
2023-02-18T20:32:49.124Z,4.72
2023-02-18T20:35:36.567Z,5.32
2023-02-18T20:38:23.907Z,4.18
2023-02-18T20:41:14.814Z,4.22
2023-02-18T20:44:04.774Z,4.60
2023-02-18T20:46:52.332Z,4.72
2023-02-18T20:49:40.493Z,5.05
2023-02-18T20:52:28.285Z,5.05
2023-02-18T20:55:15.978Z,4.78
2023-02-18T20:58:03.743Z,4.75
2023-02-18T21:00:59.032Z,4.57
2023-02-18T21:03:48.153Z,4.50
2023-02-18T21:06:35.387Z,4.72
2023-02-18T21:09:23.170Z,4.60
2023-02-18T21:12:11.060Z,4.18
2023-02-18T21:14:58.603Z,3.83
2023-02-18T21:17:47.387Z,4.50
2023-02-18T21:20:35.087Z,4.60
2023-02-18T21:23:22.508Z,4.68
2023-02-18T21:26:13.260Z,4.28
2023-02-18T21:29:05.308Z,4.10
2023-02-18T21:31:53.226Z,3.93
2023-02-18T21:34:42.383Z,4.28
2023-02-18T21:37:30.060Z,4.20
2023-02-18T21:40:17.896Z,4.18
2023-02-18T21:43:05.415Z,4.30
2023-02-18T21:45:52.833Z,4.53
2023-02-18T21:48:58.154Z,4.03
2023-02-18T21:52:00.538Z,4.25
2023-02-18T21:54:48.905Z,4.43
2023-02-18T21:57:37.109Z,5.07
2023-02-18T22:00:24.491Z,4.97
2023-02-18T22:03:11.958Z,4.90
2023-02-18T22:05:59.699Z,5.00
2023-02-18T22:08:48.749Z,4.53
2023-02-18T22:11:36.646Z,4.78
2023-02-18T22:14:24.304Z,4.80
2023-02-18T22:17:12.251Z,5.28
2023-02-18T22:19:59.508Z,4.60
2023-02-18T22:22:47.024Z,5.15
2023-02-18T22:25:36.840Z,5.32
2023-02-18T22:28:24.222Z,5.10
2023-02-18T22:31:13.800Z,4.82
2023-02-18T22:34:02.182Z,4.68
2023-02-18T22:36:50.464Z,5.07
2023-02-18T22:39:38.144Z,5.75
2023-02-18T22:42:27.131Z,4.55
2023-02-18T22:45:14.770Z,3.92
2023-02-18T22:48:02.583Z,5.30
2023-02-18T22:50:50.008Z,4.13
2023-02-18T22:53:38.358Z,4.68
2023-02-18T22:56:28.321Z,4.00
2023-02-18T22:59:20.788Z,4.30
2023-02-18T23:02:08.216Z,5.28
2023-02-18T23:04:55.635Z,4.38
2023-02-18T23:07:42.949Z,4.57
2023-02-18T23:10:30.430Z,4.35
2023-02-18T23:13:17.875Z,4.45
2023-02-18T23:16:12.064Z,4.47
2023-02-18T23:19:00.757Z,5.05
2023-02-18T23:21:48.218Z,5.07
2023-02-18T23:24:39.044Z,5.35
2023-02-18T23:27:26.906Z,4.78
2023-02-18T23:30:14.557Z,4.45
2023-02-18T23:33:03.322Z,4.03
2023-02-18T23:35:51.235Z,4.85
2023-02-18T23:38:38.598Z,5.65
2023-02-18T23:41:28.131Z,4.82
2023-02-18T23:44:19.453Z,5.70
2023-02-18T23:47:08.402Z,5.05
2023-02-18T23:49:57.285Z,5.38
2023-02-18T23:52:45.119Z,4.70
2023-02-18T23:55:32.377Z,5.45
2023-02-18T23:58:20.117Z,5.60
